createdAt,value
2022-08-09T00:02:58.460Z,19.90
2022-08-09T00:08:03.019Z,19.90
2022-08-09T00:13:16.879Z,19.90
2022-08-09T00:18:23.166Z,19.80
2022-08-09T00:23:58.170Z,19.80
2022-08-09T00:28:52.982Z,19.70
2022-08-09T00:33:58.779Z,19.70
2022-08-09T00:39:06.369Z,19.70
2022-08-09T00:44:26.661Z,19.60
2022-08-09T00:49:33.016Z,19.60
2022-08-09T00:54:36.788Z,19.50
2022-08-09T00:59:46.238Z,19.50
2022-08-09T01:05:03.275Z,19.50
2022-08-09T01:10:17.722Z,19.50
2022-08-09T01:15:29.448Z,19.40
2022-08-09T01:20:47.219Z,19.40
2022-08-09T01:26:01.601Z,19.40
2022-08-09T01:31:11.223Z,19.30
2022-08-09T01:36:37.188Z,19.30
2022-08-09T01:41:55.958Z,19.30
2022-08-09T01:47:11.789Z,19.20
2022-08-09T01:52:19.046Z,19.20
2022-08-09T01:57:28.325Z,19.20
2022-08-09T02:02:39.992Z,19.10
2022-08-09T02:08:39.192Z,19.10
2022-08-09T02:13:13.972Z,19.10
2022-08-09T02:18:23.070Z,19.00
2022-08-09T02:23:31.796Z,19.00
2022-08-09T02:28:49.522Z,18.90
2022-08-09T02:34:12.948Z,18.90
2022-08-09T02:39:34.203Z,18.90
2022-08-09T02:44:49.811Z,18.80
2022-08-09T02:50:01.586Z,18.80
2022-08-09T02:55:20.769Z,18.70
2022-08-09T03:00:26.480Z,18.70
2022-08-09T03:05:34.387Z,18.70
2022-08-09T03:10:40.730Z,18.60
2022-08-09T03:16:06.464Z,18.60
2022-08-09T03:21:13.225Z,18.60
2022-08-09T03:26:19.697Z,18.50
2022-08-09T03:31:42.360Z,18.50
2022-08-09T03:36:59.478Z,18.50
2022-08-09T03:42:07.143Z,18.40
2022-08-09T03:47:10.988Z,18.40
2022-08-09T03:52:17.669Z,18.30
2022-08-09T03:57:23.179Z,18.30
2022-08-09T04:02:28.884Z,18.30
2022-08-09T04:07:52.640Z,18.20
2022-08-09T04:13:00.997Z,18.20
2022-08-09T04:18:06.692Z,18.20
2022-08-09T04:23:17.177Z,18.10
2022-08-09T04:28:33.139Z,18.10
2022-08-09T04:33:52.381Z,18.10
2022-08-09T04:39:03.291Z,18.00
2022-08-09T04:44:12.026Z,18.00
2022-08-09T04:49:30.531Z,18.00
2022-08-09T04:54:43.567Z,18.00
2022-08-09T04:59:48.097Z,17.90
2022-08-09T05:04:55.504Z,17.90
2022-08-09T05:10:02.147Z,17.90
2022-08-09T05:15:11.566Z,17.90
2022-08-09T05:20:29.879Z,17.90
2022-08-09T05:25:38.806Z,17.90
2022-08-09T05:30:48.014Z,17.90
2022-08-09T05:35:54.214Z,17.90
2022-08-09T05:41:02.225Z,17.90
2022-08-09T05:46:07.051Z,17.90
2022-08-09T05:51:30.173Z,17.90
2022-08-09T05:56:36.031Z,17.90
2022-08-09T06:01:42.522Z,17.90
2022-08-09T06:06:49.998Z,17.90
2022-08-09T06:11:57.790Z,17.90
2022-08-09T06:17:07.691Z,17.90
2022-08-09T06:22:15.291Z,17.90
2022-08-09T06:27:20.884Z,18.00
2022-08-09T06:32:53.487Z,18.00
2022-08-09T06:37:53.381Z,18.10
2022-08-09T06:43:13.543Z,18.10
2022-08-09T06:48:17.297Z,18.10
2022-08-09T06:53:38.464Z,18.20
2022-08-09T07:00:51.563Z,18.30
2022-08-09T07:04:07.723Z,18.30
2022-08-09T07:09:53.482Z,18.40
2022-08-09T07:14:39.452Z,18.50
2022-08-09T07:19:43.186Z,18.50
2022-08-09T07:24:52.012Z,18.60
2022-08-09T07:29:58.636Z,18.70
2022-08-09T07:35:08.101Z,18.80
2022-08-09T07:40:18.622Z,18.90
2022-08-09T07:45:37.974Z,19.00
2022-08-09T07:50:52.772Z,19.10
2022-08-09T07:56:03.597Z,19.30
2022-08-09T08:01:13.688Z,19.40
2022-08-09T08:06:21.264Z,19.50
2022-08-09T08:12:11.273Z,19.60
2022-08-09T08:17:07.641Z,19.70
2022-08-09T08:22:12.743Z,19.90
2022-08-09T08:27:18.618Z,20.00
2022-08-09T08:32:35.560Z,20.10
2022-08-09T08:38:04.388Z,20.30
2022-08-09T08:43:13.719Z,20.40
2022-08-09T08:48:19.835Z,20.50
2022-08-09T08:53:23.991Z,20.70
2022-08-09T08:58:37.802Z,20.80
2022-08-09T09:03:44.720Z,20.90
2022-08-09T09:08:59.736Z,21.10
2022-08-09T09:14:15.754Z,21.30
2022-08-09T09:19:36.623Z,21.40
2022-08-09T09:24:45.660Z,21.70
2022-08-09T09:35:15.802Z,22.20
2022-08-09T09:40:21.565Z,22.50
2022-08-09T09:45:29.446Z,22.90
2022-08-09T09:50:50.725Z,23.20
2022-08-09T09:56:04.138Z,23.70
2022-08-09T10:01:31.179Z,24.10
2022-08-09T10:06:46.985Z,24.50
2022-08-09T10:12:12.081Z,24.80
2022-08-09T10:17:54.920Z,25.00
2022-08-09T10:22:48.216Z,25.40
2022-08-09T10:27:56.717Z,25.60
2022-08-09T10:33:02.234Z,25.90
2022-08-09T10:38:33.630Z,26.10
2022-08-09T10:43:36.072Z,26.30
2022-08-09T10:48:59.713Z,26.50
2022-08-09T10:54:10.091Z,26.70
2022-08-09T10:59:43.044Z,26.90
2022-08-09T11:05:25.488Z,27.10
2022-08-09T11:11:00.888Z,27.30
2022-08-09T11:16:39.136Z,27.40
2022-08-09T11:22:18.480Z,27.50
2022-08-09T11:28:04.835Z,27.60
2022-08-09T11:33:02.616Z,27.70
2022-08-09T11:38:17.596Z,27.80
2022-08-09T11:43:42.019Z,27.80
2022-08-09T11:48:50.990Z,27.90
2022-08-09T11:54:28.649Z,28.00
2022-08-09T11:59:38.822Z,28.00
2022-08-09T12:04:42.938Z,28.10
2022-08-09T12:09:50.598Z,28.20
2022-08-09T12:15:07.882Z,28.20
2022-08-09T12:20:21.331Z,28.30
2022-08-09T12:25:37.711Z,28.30
2022-08-09T12:30:44.324Z,28.40
2022-08-09T12:35:48.425Z,28.50
2022-08-09T12:40:54.468Z,28.50
2022-08-09T12:46:00.787Z,28.50
2022-08-09T12:51:05.580Z,28.60
2022-08-09T12:56:42.933Z,28.60
2022-08-09T13:01:38.726Z,28.60
2022-08-09T13:06:50.886Z,28.60
2022-08-09T13:12:07.449Z,28.60
2022-08-09T13:17:58.793Z,28.60
2022-08-09T13:23:05.216Z,28.60
2022-08-09T13:28:24.620Z,28.60
2022-08-09T13:33:52.632Z,28.50
2022-08-09T13:39:00.900Z,28.50
2022-08-09T13:44:08.147Z,28.50
2022-08-09T13:49:18.033Z,28.50
2022-08-09T13:54:25.764Z,28.40
2022-08-09T13:59:41.653Z,28.40
2022-08-09T14:04:47.468Z,28.40
2022-08-09T14:10:03.353Z,28.30
2022-08-09T14:16:07.193Z,28.30
2022-08-09T14:20:33.904Z,28.30
2022-08-09T14:25:42.618Z,28.20
2022-08-09T14:30:46.975Z,28.20
2022-08-09T14:35:53.403Z,28.20
2022-08-09T14:41:02.153Z,28.10
2022-08-09T14:46:54.079Z,28.00
2022-08-09T14:51:46.309Z,28.00
2022-08-09T14:56:57.458Z,27.90
2022-08-09T15:02:02.649Z,27.80
2022-08-09T15:07:10.078Z,27.70
2022-08-09T15:12:14.220Z,27.70
2022-08-09T15:17:18.303Z,27.60
2022-08-09T15:22:25.937Z,27.50
2022-08-09T15:27:47.953Z,27.50
2022-08-09T15:32:59.187Z,27.40
2022-08-09T15:38:10.909Z,27.40
2022-08-09T15:43:15.775Z,27.30
2022-08-09T15:48:28.734Z,27.30
2022-08-09T15:54:05.123Z,27.20
2022-08-09T15:58:58.532Z,27.10
2022-08-09T16:04:02.440Z,27.00
2022-08-09T16:09:07.740Z,26.90
2022-08-09T16:14:11.553Z,26.90
2022-08-09T16:19:18.036Z,26.80
2022-08-09T16:24:33.555Z,26.80
2022-08-09T16:29:50.458Z,26.60
2022-08-09T16:34:58.390Z,26.60
2022-08-09T16:40:05.734Z,26.50
2022-08-09T16:45:11.041Z,26.40
2022-08-09T16:50:31.170Z,26.40
2022-08-09T16:56:00.549Z,26.30
2022-08-09T17:01:07.177Z,26.20
2022-08-09T17:06:32.022Z,26.10
2022-08-09T17:11:40.489Z,26.10
2022-08-09T17:16:46.643Z,26.00
2022-08-09T17:21:57.169Z,26.00
2022-08-09T17:27:02.286Z,25.90
2022-08-09T17:32:15.963Z,25.90
2022-08-09T17:37:25.381Z,25.80
2022-08-09T17:42:55.403Z,25.80
2022-08-09T17:48:02.822Z,25.70
2022-08-09T17:53:19.225Z,25.70
2022-08-09T17:58:27.395Z,25.60
2022-08-09T18:03:33.279Z,25.60
2022-08-09T18:08:38.117Z,25.60
2022-08-09T18:13:56.594Z,25.50
2022-08-09T18:20:54.929Z,25.50
2022-08-09T18:24:31.069Z,25.40
2022-08-09T18:30:35.698Z,25.40
2022-08-09T18:35:02.870Z,25.40
2022-08-09T18:40:11.324Z,25.30
2022-08-09T18:45:21.590Z,25.20
2022-08-09T18:50:45.381Z,25.20
2022-08-09T18:55:57.378Z,25.20
2022-08-09T19:01:11.142Z,25.10
2022-08-09T19:06:15.788Z,25.00
2022-08-09T19:11:23.736Z,25.00
2022-08-09T19:16:42.389Z,25.00
2022-08-09T19:22:05.053Z,24.90
2022-08-09T19:27:11.818Z,24.90
2022-08-09T19:32:19.700Z,24.80
2022-08-09T19:37:23.555Z,24.70
2022-08-09T19:42:28.367Z,24.60
2022-08-09T19:47:38.100Z,24.60
2022-08-09T19:52:49.759Z,24.50
2022-08-09T19:57:58.355Z,24.40
2022-08-09T20:04:12.725Z,24.40
2022-08-09T20:08:35.181Z,24.30
2022-08-09T20:13:39.879Z,24.30
2022-08-09T20:19:03.947Z,24.20
2022-08-09T20:24:09.996Z,24.20
2022-08-09T20:29:19.002Z,24.10
2022-08-09T20:34:25.209Z,24.00
2022-08-09T20:40:17.717Z,23.90
2022-08-09T20:45:04.560Z,23.90
2022-08-09T20:50:47.765Z,23.80
2022-08-09T20:56:00.805Z,23.80
2022-08-09T21:01:32.628Z,23.70
2022-08-09T21:06:33.702Z,23.60
2022-08-09T21:18:22.167Z,23.50
2022-08-09T21:22:36.257Z,23.40
2022-08-09T21:28:01.185Z,23.40
2022-08-09T21:33:05.871Z,23.30
2022-08-09T21:38:11.124Z,23.20
2022-08-09T21:43:16.570Z,23.20
2022-08-09T21:48:42.619Z,23.10
2022-08-09T21:53:55.734Z,23.10
2022-08-09T21:59:01.041Z,23.00
2022-08-09T22:04:05.214Z,22.90
2022-08-09T22:09:12.172Z,22.90
2022-08-09T22:14:16.138Z,22.80
2022-08-09T22:19:23.948Z,22.80
2022-08-09T22:24:53.706Z,22.60
2022-08-09T22:30:11.587Z,22.60
2022-08-09T22:36:01.189Z,22.60
2022-08-09T22:40:49.025Z,22.50
2022-08-09T22:48:14.690Z,22.40
2022-08-09T22:51:25.263Z,22.40
2022-08-09T22:56:34.300Z,22.30
2022-08-09T23:01:39.136Z,22.30
2022-08-09T23:07:11.334Z,22.30
2022-08-09T23:12:19.048Z,22.20
2022-08-09T23:17:22.712Z,22.10
2022-08-09T23:22:26.553Z,22.10
2022-08-09T23:27:31.811Z,22.10
2022-08-09T23:32:35.623Z,22.00
2022-08-09T23:37:39.273Z,21.90
2022-08-09T23:42:44.393Z,21.90
2022-08-09T23:47:48.086Z,21.90
2022-08-09T23:52:51.807Z,21.80
2022-08-09T23:58:09.301Z,21.80
